Time;durP1;ratioP1;P1;durP2;ratioP2;P2;SDS_P1;SDS_P2;PMS_P1;PMS_P2;Temp;Humidity;BMP_temperature;BMP_pressure;BME280_temperature;BME280_humidity;BME280_pressure;Samples;Min_cycle;Max_cycle;Signal;HPM_P1;HPM_P2
2022/06/01 00:02:21;;;;;;;10.15;9.15;;;10.70;99.90;;;;;;5024690;28;20080;-72
2022/06/01 00:04:47;;;;;;;8.15;7.35;;;10.70;99.90;;;;;;5022308;28;20044;-72
2022/06/01 00:07:13;;;;;;;8.35;7.57;;;10.60;99.90;;;;;;5064529;28;20471;-71
2022/06/01 00:09:39;;;;;;;8.63;7.72;;;10.60;99.90;;;;;;5037771;28;20092;-71
2022/06/01 00:12:05;;;;;;;7.80;7.03;;;10.50;99.90;;;;;;5073773;28;20029;-73
2022/06/01 00:14:33;;;;;;;7.57;6.75;;;10.50;99.90;;;;;;5038986;28;20053;-74
2022/06/01 00:16:58;;;;;;;7.45;6.75;;;10.50;99.90;;;;;;5043284;28;20049;-72
2022/06/01 00:19:24;;;;;;;7.40;6.70;;;10.40;99.90;;;;;;5035189;28;20039;-72
2022/06/01 00:24:34;;;;;;;8.32;7.50;;;10.50;99.90;;;;;;5034220;28;20037;-73
2022/06/01 00:26:59;;;;;;;7.72;6.93;;;10.60;99.90;;;;;;5046833;28;20041;-72
2022/06/01 00:29:25;;;;;;;7.38;6.68;;;10.50;99.90;;;;;;5047054;28;20072;-72
2022/06/01 00:31:51;;;;;;;9.57;8.02;;;10.70;99.90;;;;;;5023600;28;20102;-71
2022/06/01 00:34:17;;;;;;;8.88;7.28;;;10.70;99.90;;;;;;5009116;28;20065;-72
2022/06/01 00:36:43;;;;;;;8.07;7.28;;;10.70;99.90;;;;;;5036904;28;20050;-71
2022/06/01 00:39:08;;;;;;;8.45;7.68;;;10.80;99.90;;;;;;5038865;28;20493;-72
2022/06/01 00:41:35;;;;;;;8.40;7.60;;;11.00;99.90;;;;;;5040830;28;20072;-71
2022/06/01 00:44:00;;;;;;;9.25;8.32;;;11.00;99.90;;;;;;5033059;28;20049;-72
2022/06/01 00:46:26;;;;;;;8.70;7.80;;;10.90;99.90;;;;;;5061996;28;20053;-71
2022/06/01 00:48:56;;;;;;;8.43;7.63;;;11.00;99.90;;;;;;5046935;28;20068;-71
2022/06/01 00:51:26;;;;;;;10.68;9.18;;;11.10;99.90;;;;;;5037669;28;20056;-71
2022/06/01 00:53:53;;;;;;;11.45;10.35;;;11.20;99.90;;;;;;5040293;28;20053;-71
2022/06/01 00:56:24;;;;;;;12.60;11.30;;;11.20;99.90;;;;;;5051273;28;20346;-73
2022/06/01 00:58:52;;;;;;;12.13;10.88;;;11.30;99.90;;;;;;5023128;28;20412;-71
2022/06/01 01:01:20;;;;;;;11.63;10.02;;;11.30;99.90;;;;;;5023500;28;20439;-72
2022/06/01 01:03:49;;;;;;;9.75;8.75;;;11.30;99.90;;;;;;5034676;28;20049;-73
2022/06/01 01:06:33;;;;;;;11.05;9.35;;;11.50;99.90;;;;;;5055425;28;20048;-71
2022/06/01 01:08:59;;;;;;;9.82;8.93;;;11.50;99.90;;;;;;5042429;28;20428;-72
2022/06/01 01:11:30;;;;;;;9.43;8.23;;;11.40;99.90;;;;;;5043255;28;20037;-72
2022/06/01 01:13:57;;;;;;;8.25;7.43;;;11.40;99.90;;;;;;5041678;28;20048;-73
2022/06/01 01:16:24;;;;;;;9.55;7.43;;;11.20;99.90;;;;;;5016222;28;20037;-72
2022/06/01 01:18:54;;;;;;;7.97;7.18;;;11.00;99.90;;;;;;5041979;28;20049;-71
2022/06/01 01:21:31;;;;;;;7.18;6.47;;;11.00;99.90;;;;;;5047462;28;20072;-72
2022/06/01 01:24:07;;;;;;;8.07;7.18;;;11.20;99.90;;;;;;5038805;28;20048;-72
2022/06/01 01:26:34;;;;;;;11.38;9.95;;;11.20;99.90;;;;;;5039467;28;20025;-71
2022/06/01 01:29:09;;;;;;;10.27;8.82;;;11.10;99.90;;;;;;5041720;28;20045;-72
2022/06/01 01:31:36;;;;;;;12.25;10.07;;;11.40;99.90;;;;;;5017099;28;22190;-73
2022/06/01 01:34:02;;;;;;;11.10;10.00;;;11.30;99.90;;;;;;5058798;28;20083;-73
2022/06/01 01:36:35;;;;;;;11.93;10.75;;;11.30;99.90;;;;;;5037271;28;21802;-73
2022/06/01 01:39:12;;;;;;;12.27;11.02;;;11.30;99.90;;;;;;5029341;28;20080;-71
2022/06/01 01:41:42;;;;;;;13.55;11.38;;;11.30;99.90;;;;;;5047824;28;20029;-72
2022/06/01 01:44:34;;;;;;;12.25;10.95;;;11.40;99.90;;;;;;5054036;28;20049;-72
2022/06/01 01:47:01;;;;;;;11.38;10.20;;;11.40;99.90;;;;;;5037960;28;20045;-72
2022/06/01 01:49:33;;;;;;;12.30;11.07;;;11.40;99.90;;;;;;5058135;28;20053;-72
2022/06/01 01:52:02;;;;;;;11.05;9.95;;;11.40;99.90;;;;;;5031342;28;20030;-73
2022/06/01 01:54:46;;;;;;;12.20;10.90;;;11.50;99.90;;;;;;5039642;28;20511;-73
2022/06/01 01:57:30;;;;;;;11.57;10.43;;;11.50;99.90;;;;;;5035098;28;20472;-73
2022/06/01 02:00:17;;;;;;;12.57;11.10;;;11.40;99.90;;;;;;5040872;28;20040;-72
2022/06/01 02:02:50;;;;;;;14.00;12.52;;;11.40;99.90;;;;;;5037097;28;20067;-73
2022/06/01 02:08:48;;;;;;;15.23;12.88;;;11.50;99.90;;;;;;5047536;28;20118;-73
2022/06/01 02:14:40;;;;;;;14.90;13.30;;;11.70;99.90;;;;;;5038706;28;20044;-74
2022/06/01 02:17:16;;;;;;;13.90;12.43;;;11.60;99.90;;;;;;5042427;28;20056;-73
2022/06/01 02:19:47;;;;;;;14.25;12.75;;;11.60;99.90;;;;;;5035680;28;20057;-73
2022/06/01 02:22:14;;;;;;;14.68;13.18;;;11.70;99.90;;;;;;5043161;28;20056;-73
2022/06/01 02:24:41;;;;;;;14.50;13.00;;;11.50;99.90;;;;;;5027350;28;20037;-73
2022/06/01 02:27:09;;;;;;;13.13;11.80;;;11.80;99.90;;;;;;5045483;28;20041;-72
2022/06/01 02:29:37;;;;;;;15.32;13.75;;;11.80;99.90;;;;;;5075681;28;20037;-73
2022/06/01 02:32:04;;;;;;;15.18;13.10;;;11.70;99.90;;;;;;5029839;28;20083;-73
2022/06/01 02:34:31;;;;;;;13.48;12.10;;;11.50;99.90;;;;;;5050429;28;20041;-70
2022/06/01 02:37:00;;;;;;;13.48;12.15;;;11.60;99.90;;;;;;5044888;28;20055;-71
2022/06/01 02:39:27;;;;;;;14.48;13.00;;;11.60;99.90;;;;;;5037106;28;20032;-71
2022/06/01 02:42:25;;;;;;;14.57;13.07;;;11.80;99.90;;;;;;5038066;28;20037;-72
2022/06/01 02:45:06;;;;;;;13.88;12.48;;;11.60;99.90;;;;;;5039492;28;20489;-73
2022/06/01 02:47:37;;;;;;;13.18;11.80;;;11.60;99.90;;;;;;5036878;28;20044;-71
2022/06/01 02:50:05;;;;;;;13.00;11.70;;;11.90;99.90;;;;;;5035400;28;20079;-71
2022/06/01 02:52:31;;;;;;;14.32;12.77;;;11.50;99.90;;;;;;5044798;28;20033;-72
2022/06/01 02:54:57;;;;;;;12.80;11.43;;;11.70;99.90;;;;;;5045681;28;20037;-73
2022/06/01 02:57:23;;;;;;;12.75;11.45;;;11.70;99.90;;;;;;5058107;28;20095;-77
2022/06/01 02:59:50;;;;;;;15.25;12.02;;;11.70;99.90;;;;;;5037244;28;20037;-72
2022/06/01 03:02:16;;;;;;;14.68;13.18;;;11.70;99.90;;;;;;5044141;28;20051;-73
2022/06/01 03:04:43;;;;;;;14.20;12.70;;;11.80;99.90;;;;;;5024998;28;20421;-71
2022/06/01 03:07:10;;;;;;;15.93;13.07;;;11.50;99.90;;;;;;5042412;28;20117;-72
2022/06/01 03:09:36;;;;;;;13.68;12.23;;;11.50;99.90;;;;;;5036495;28;22121;-72
2022/06/01 03:12:04;;;;;;;13.65;12.25;;;11.60;99.90;;;;;;5036119;28;20037;-71
2022/06/01 03:14:30;;;;;;;14.88;13.00;;;11.70;99.90;;;;;;5037841;28;20080;-72
2022/06/01 03:16:56;;;;;;;13.85;12.40;;;11.40;99.90;;;;;;5073165;28;20807;-72
2022/06/01 03:19:22;;;;;;;13.77;12.38;;;11.40;99.90;;;;;;5026892;28;20124;-71
2022/06/01 03:21:48;;;;;;;14.82;13.32;;;11.70;99.90;;;;;;5034113;28;20127;-72
2022/06/01 03:24:14;;;;;;;14.32;12.65;;;11.50;99.90;;;;;;5032630;28;20041;-74
2022/06/01 03:26:41;;;;;;;15.05;13.45;;;11.60;99.90;;;;;;5054108;28;20148;-74
2022/06/01 03:29:07;;;;;;;15.68;14.00;;;11.40;99.90;;;;;;5039077;28;20045;-71
2022/06/01 03:31:33;;;;;;;16.65;14.85;;;11.50;99.90;;;;;;5027201;28;20052;-71
2022/06/01 03:33:59;;;;;;;17.67;15.05;;;11.40;99.90;;;;;;5052876;28;20051;-72
2022/06/01 03:36:25;;;;;;;17.83;15.45;;;11.40;99.90;;;;;;5054128;28;20080;-72
2022/06/01 03:38:51;;;;;;;16.80;15.00;;;11.70;99.90;;;;;;5042050;28;20076;-72
2022/06/01 03:41:17;;;;;;;18.73;16.77;;;11.70;99.90;;;;;;5058249;28;20088;-73
2022/06/01 03:46:47;;;;;;;16.42;14.70;;;11.60;99.90;;;;;;5041636;28;20045;-73
2022/06/01 03:49:13;;;;;;;18.58;15.23;;;11.70;99.90;;;;;;4987085;28;20029;-74
2022/06/01 03:51:38;;;;;;;16.85;15.02;;;11.50;99.90;;;;;;5002151;28;20084;-73
2022/06/01 03:54:06;;;;;;;18.83;16.55;;;11.80;99.90;;;;;;5030227;28;20040;-73
2022/06/01 03:56:32;;;;;;;19.20;17.17;;;11.60;99.90;;;;;;5041596;28;20492;-74
2022/06/01 03:58:59;;;;;;;18.83;16.15;;;11.90;99.90;;;;;;5035371;28;20434;-72
2022/06/01 04:01:24;;;;;;;19.50;15.27;;;11.70;99.90;;;;;;5034786;28;20049;-74
2022/06/01 04:03:50;;;;;;;18.33;16.33;;;12.00;99.90;;;;;;5046540;28;20556;-73
2022/06/01 04:06:16;;;;;;;20.50;18.30;;;11.90;99.90;;;;;;5067290;28;20036;-73
2022/06/01 04:08:42;;;;;;;19.38;17.48;;;11.90;99.90;;;;;;5018360;28;20100;-73
2022/06/01 04:11:08;;;;;;;18.60;16.55;;;12.10;99.90;;;;;;5025101;28;20043;-73
2022/06/01 04:13:35;;;;;;;19.23;17.25;;;12.10;99.90;;;;;;5021769;28;20119;-72
2022/06/01 04:16:01;;;;;;;20.25;17.65;;;12.10;99.90;;;;;;5037708;28;20053;-72
2022/06/01 04:18:26;;;;;;;19.00;17.00;;;11.90;99.90;;;;;;5039658;28;20071;-74
2022/06/01 04:20:53;;;;;;;20.15;17.50;;;11.90;99.90;;;;;;5040465;28;20099;-73
2022/06/01 04:23:19;;;;;;;22.02;19.02;;;12.00;99.90;;;;;;5017856;28;20413;-74
2022/06/01 04:25:44;;;;;;;19.48;17.48;;;12.00;99.90;;;;;;5040505;28;20040;-74
2022/06/01 04:28:11;;;;;;;19.25;16.30;;;12.20;99.90;;;;;;5043723;28;20040;-74
2022/06/01 04:30:37;;;;;;;19.50;16.83;;;12.00;99.90;;;;;;5069440;28;20468;-74
2022/06/01 04:33:03;;;;;;;19.23;17.08;;;12.30;99.90;;;;;;5017180;28;20041;-73
2022/06/01 04:35:29;;;;;;;19.55;16.33;;;12.30;99.90;;;;;;5038162;28;20044;-74
2022/06/01 04:38:12;;;;;;;19.23;17.30;;;12.20;99.90;;;;;;5021387;28;20033;-74
2022/06/01 04:40:39;;;;;;;20.15;18.05;;;12.20;99.90;;;;;;5038442;28;20072;-75
2022/06/01 04:43:05;;;;;;;18.80;16.90;;;12.30;99.90;;;;;;5031119;28;20053;-75
2022/06/01 04:45:30;;;;;;;19.73;16.45;;;12.40;99.90;;;;;;5016588;28;20029;-74
2022/06/01 04:47:56;;;;;;;18.70;16.75;;;12.40;99.90;;;;;;5019717;28;20060;-75
2022/06/01 04:50:22;;;;;;;20.48;18.38;;;12.30;99.90;;;;;;5029813;28;20080;-75
2022/06/01 04:52:48;;;;;;;19.33;17.08;;;12.70;99.90;;;;;;5046834;28;20036;-74
2022/06/01 04:55:14;;;;;;;19.10;16.50;;;12.50;99.90;;;;;;5010056;28;20044;-73
2022/06/01 04:57:40;;;;;;;19.80;17.67;;;12.80;99.90;;;;;;5034572;28;20111;-73
2022/06/01 05:00:07;;;;;;;19.63;17.10;;;12.90;99.90;;;;;;5047670;28;20542;-72
2022/06/01 05:02:33;;;;;;;20.58;17.85;;;13.00;99.90;;;;;;5043754;28;20040;-73
2022/06/01 05:04:59;;;;;;;20.08;17.98;;;12.70;99.90;;;;;;5037843;28;20033;-74
2022/06/01 05:07:25;;;;;;;20.77;18.17;;;12.80;99.90;;;;;;5025650;28;20040;-73
2022/06/01 05:09:51;;;;;;;22.02;19.52;;;13.10;99.90;;;;;;5066544;28;20067;-74
2022/06/01 05:12:16;;;;;;;20.13;18.02;;;13.10;99.90;;;;;;5032335;28;20115;-73
2022/06/01 05:14:42;;;;;;;19.70;16.58;;;13.20;99.90;;;;;;5047005;28;20033;-73
2022/06/01 05:17:08;;;;;;;18.88;16.98;;;12.90;99.90;;;;;;5039400;28;20056;-73
2022/06/01 05:19:34;;;;;;;19.02;17.13;;;13.20;99.90;;;;;;5024204;28;20110;-72
2022/06/01 05:22:00;;;;;;;19.27;16.25;;;13.30;99.90;;;;;;5044387;28;20965;-73
2022/06/01 05:24:26;;;;;;;19.60;17.70;;;13.30;99.90;;;;;;5048960;28;20071;-74
2022/06/01 05:26:52;;;;;;;20.88;18.63;;;13.00;99.90;;;;;;5043955;28;20041;-73
2022/06/01 05:29:17;;;;;;;19.25;17.20;;;13.00;99.90;;;;;;5039060;28;20045;-74
2022/06/01 05:31:44;;;;;;;20.60;18.50;;;12.90;99.90;;;;;;5049129;28;20370;-74
2022/06/01 05:34:10;;;;;;;20.63;17.75;;;12.90;99.90;;;;;;5047511;28;20044;-73
2022/06/01 05:36:36;;;;;;;20.27;18.08;;;13.10;99.90;;;;;;5047017;28;20767;-73
2022/06/01 05:39:03;;;;;;;21.38;18.10;;;12.90;99.90;;;;;;5044959;28;20124;-71
2022/06/01 05:41:29;;;;;;;18.95;17.05;;;13.10;99.90;;;;;;5048467;28;20107;-71
2022/06/01 05:43:55;;;;;;;17.75;15.85;;;12.90;99.90;;;;;;5028918;28;20053;-72
2022/06/01 05:46:24;;;;;;;18.67;16.52;;;12.80;99.90;;;;;;5035913;28;20052;-73
2022/06/01 05:48:50;;;;;;;18.98;16.98;;;13.10;99.90;;;;;;5058240;28;20048;-72
2022/06/01 05:51:16;;;;;;;20.45;17.50;;;13.30;99.90;;;;;;5048043;28;20070;-74
2022/06/01 05:53:42;;;;;;;20.45;18.23;;;13.40;99.90;;;;;;5043493;28;20034;-73
2022/06/01 05:56:08;;;;;;;21.77;19.42;;;13.40;99.90;;;;;;5035270;28;20051;-73
2022/06/01 05:58:33;;;;;;;23.38;18.10;;;13.60;99.90;;;;;;5045799;28;20382;-71
2022/06/01 06:01:07;;;;;;;19.92;16.58;;;13.60;99.90;;;;;;5064753;28;20066;-72
2022/06/01 06:03:34;;;;;;;19.20;17.15;;;13.60;99.90;;;;;;5051152;28;20551;-73
2022/06/01 06:06:14;;;;;;;17.30;15.50;;;13.30;99.90;;;;;;5044313;28;20074;-73
2022/06/01 06:08:42;;;;;;;18.63;16.73;;;13.60;99.90;;;;;;5065738;28;20043;-74
2022/06/01 06:11:08;;;;;;;17.73;15.82;;;13.40;99.90;;;;;;5057160;28;20084;-73
2022/06/01 06:13:34;;;;;;;16.35;14.70;;;13.60;99.90;;;;;;5029454;28;20566;-73
2022/06/01 06:16:00;;;;;;;18.05;15.93;;;13.70;99.90;;;;;;5079211;28;20080;-73
2022/06/01 06:18:26;;;;;;;16.23;14.52;;;13.60;99.90;;;;;;5046836;28;20059;-72
2022/06/01 06:20:52;;;;;;;21.73;15.35;;;13.40;99.90;;;;;;5048459;28;20041;-74
2022/06/01 06:23:18;;;;;;;18.67;16.77;;;13.70;99.90;;;;;;5017040;28;20725;-72
2022/06/01 06:25:44;;;;;;;17.30;15.23;;;13.30;99.90;;;;;;5031650;28;20385;-73
2022/06/01 06:28:11;;;;;;;17.92;16.20;;;13.40;99.90;;;;;;5056711;28;20037;-73
2022/06/01 06:30:38;;;;;;;17.67;15.93;;;13.40;99.90;;;;;;5045467;28;20033;-73
2022/06/01 06:33:05;;;;;;;17.80;15.93;;;13.40;99.90;;;;;;5044370;28;20408;-71
2022/06/01 06:35:31;;;;;;;17.05;15.35;;;13.40;99.90;;;;;;5029919;28;20041;-71
2022/06/01 06:37:56;;;;;;;17.10;15.25;;;13.80;99.90;;;;;;5029882;28;20477;-72
2022/06/01 06:40:22;;;;;;;17.65;15.15;;;13.90;99.90;;;;;;5024098;28;20044;-71
2022/06/01 06:42:48;;;;;;;16.85;14.88;;;13.90;99.90;;;;;;5038396;28;20056;-72
2022/06/01 06:45:14;;;;;;;17.35;15.35;;;13.80;99.90;;;;;;5020854;28;21594;-75
2022/06/01 06:47:40;;;;;;;17.02;15.27;;;13.70;99.90;;;;;;5041971;28;20060;-73
2022/06/01 06:50:09;;;;;;;18.05;15.73;;;14.10;99.90;;;;;;5044859;28;20037;-71
2022/06/01 06:52:35;;;;;;;18.50;14.07;;;14.00;99.90;;;;;;5028120;28;20078;-73
2022/06/01 06:55:00;;;;;;;15.70;13.77;;;14.20;99.90;;;;;;5028397;28;20545;-71
2022/06/01 06:57:26;;;;;;;15.60;13.95;;;13.90;99.90;;;;;;5027492;28;20035;-73
2022/06/01 06:59:52;;;;;;;15.80;13.40;;;14.10;99.90;;;;;;5015804;28;20464;-72
2022/06/01 07:02:18;;;;;;;13.52;12.13;;;13.90;99.90;;;;;;5042653;28;20044;-73
2022/06/01 07:04:45;;;;;;;16.15;11.82;;;13.90;99.90;;;;;;5036892;28;20036;-73
2022/06/01 07:07:10;;;;;;;13.80;12.35;;;14.10;99.90;;;;;;5077033;28;20037;-72
2022/06/01 07:09:36;;;;;;;12.50;11.27;;;14.10;99.90;;;;;;5054216;28;20426;-72
2022/06/01 07:12:02;;;;;;;11.70;10.50;;;14.50;99.90;;;;;;5029976;28;20039;-74
2022/06/01 07:14:28;;;;;;;11.55;10.13;;;14.20;99.90;;;;;;5040621;28;20045;-72
2022/06/01 07:16:54;;;;;;;5.30;4.70;;;14.10;99.90;;;;;;5027538;28;20040;-74
2022/06/01 07:19:19;;;;;;;5.57;3.03;;;14.20;99.90;;;;;;5042245;28;20044;-73
2022/06/01 07:21:45;;;;;;;4.57;4.10;;;13.80;99.90;;;;;;5061396;28;20032;-73
2022/06/01 07:24:11;;;;;;;7.72;4.53;;;14.00;99.90;;;;;;5025320;28;20049;-72
2022/06/01 07:26:40;;;;;;;4.50;4.10;;;13.80;99.90;;;;;;5043069;28;20052;-73
2022/06/01 07:29:07;;;;;;;4.53;4.10;;;13.80;99.90;;;;;;5043153;28;20441;-72
2022/06/01 07:31:32;;;;;;;5.75;4.22;;;13.70;99.90;;;;;;5027437;28;20037;-72
2022/06/01 07:33:58;;;;;;;6.10;4.68;;;13.50;99.90;;;;;;5026605;28;20110;-75
2022/06/01 07:36:25;;;;;;;6.28;4.78;;;13.20;99.90;;;;;;5027986;28;20150;-74
2022/06/01 07:44:27;;;;;;;8.27;5.70;;;12.60;99.90;;;;;;5042313;28;20523;-76
2022/06/01 07:46:53;;;;;;;6.00;5.22;;;12.80;99.90;;;;;;5032329;28;20041;-76
2022/06/01 07:49:19;;;;;;;8.38;5.63;;;12.70;99.90;;;;;;5050159;28;20072;-74
2022/06/01 07:51:45;;;;;;;6.78;5.88;;;13.30;99.90;;;;;;5050246;28;20055;-77
2022/06/01 07:54:11;;;;;;;6.85;6.13;;;13.10;99.90;;;;;;5028151;28;20033;-75
2022/06/01 07:56:37;;;;;;;6.93;6.28;;;13.20;99.90;;;;;;5042557;28;20044;-75
2022/06/01 07:59:05;;;;;;;7.55;6.75;;;13.10;99.90;;;;;;5035682;28;20049;-75
2022/06/01 08:01:32;;;;;;;7.22;6.50;;;13.70;99.90;;;;;;5075034;28;20127;-75
2022/06/01 08:04:02;;;;;;;7.68;6.88;;;13.30;99.90;;;;;;5062814;28;20044;-75
2022/06/01 08:06:28;;;;;;;8.55;6.78;;;14.40;99.90;;;;;;5046818;28;20080;-75
2022/06/01 08:08:54;;;;;;;7.07;6.38;;;13.80;99.90;;;;;;5049439;28;20455;-73
2022/06/01 08:13:06;;;;;;;9.18;7.75;;;14.10;99.90;;;;;;5016682;28;20059;-74
2022/06/01 08:14:08;;;;;;;8.38;6.30;;;14.60;99.90;;;;;;5053070;28;20060;-74
2022/06/01 08:16:35;;;;;;;6.68;6.07;;;14.20;99.90;;;;;;5033452;28;20545;-76
2022/06/01 08:19:01;;;;;;;7.30;6.30;;;14.00;99.90;;;;;;5028144;28;20550;-75
2022/06/01 08:21:27;;;;;;;6.72;6.00;;;14.70;99.90;;;;;;5024585;28;20045;-75
2022/06/01 08:23:52;;;;;;;8.13;6.50;;;14.90;99.90;;;;;;5044849;28;20504;-75
2022/06/01 08:26:18;;;;;;;7.15;6.22;;;14.60;99.90;;;;;;5045773;28;20489;-76
2022/06/01 08:28:44;;;;;;;7.15;6.53;;;14.50;99.90;;;;;;5032394;28;20037;-75
2022/06/01 08:31:09;;;;;;;8.95;8.02;;;14.60;99.90;;;;;;5028211;28;20079;-75
2022/06/01 08:33:35;;;;;;;9.10;8.20;;;14.90;99.90;;;;;;5052510;28;20071;-75
2022/06/01 08:36:01;;;;;;;9.88;8.88;;;15.20;99.90;;;;;;5048032;28;20049;-75
2022/06/01 08:38:27;;;;;;;9.05;8.15;;;15.10;99.90;;;;;;5032147;28;20386;-74
2022/06/01 08:41:07;;;;;;;9.18;7.47;;;15.50;99.90;;;;;;5027515;28;20056;-76
2022/06/01 08:43:51;;;;;;;8.75;7.85;;;15.30;99.90;;;;;;5026744;28;20049;-76
2022/06/01 08:46:18;;;;;;;8.57;7.37;;;15.30;99.90;;;;;;5043956;28;20042;-76
2022/06/01 08:48:52;;;;;;;8.70;7.90;;;15.80;99.90;;;;;;5021990;28;20037;-74
2022/06/01 08:51:22;;;;;;;6.20;5.68;;;15.90;99.90;;;;;;5035602;28;20624;-74
2022/06/01 08:53:47;;;;;;;5.25;4.75;;;16.10;99.90;;;;;;5052309;28;20072;-75
2022/06/01 08:56:23;;;;;;;5.38;4.88;;;16.20;99.90;;;;;;5047786;28;20119;-74
2022/06/01 08:59:21;;;;;;;4.95;4.43;;;16.40;99.90;;;;;;5049331;28;20041;-74
2022/06/01 09:02:22;;;;;;;4.40;4.00;;;16.40;99.90;;;;;;5049212;28;20048;-74
2022/06/01 09:04:55;;;;;;;4.85;4.45;;;16.10;99.90;;;;;;5033062;28;20129;-74
2022/06/01 09:07:29;;;;;;;4.63;4.20;;;16.20;99.90;;;;;;5047932;28;20047;-75
2022/06/01 09:10:18;;;;;;;5.18;4.78;;;16.20;99.90;;;;;;5036884;28;20170;-75
2022/06/01 09:12:45;;;;;;;5.25;4.75;;;16.00;99.90;;;;;;5053324;28;20043;-74
2022/06/01 09:15:25;;;;;;;6.72;4.88;;;16.40;99.90;;;;;;5032233;28;20516;-74
2022/06/01 09:17:50;;;;;;;4.68;4.18;;;16.00;99.90;;;;;;5086079;28;20052;-75
2022/06/01 09:23:06;;;;;;;5.13;3.93;;;16.00;99.90;;;;;;5048552;28;20060;-74
2022/06/01 09:25:36;;;;;;;5.70;4.75;;;16.00;99.90;;;;;;5078956;28;20045;-75
2022/06/01 09:28:20;;;;;;;5.35;4.95;;;16.30;99.90;;;;;;5014657;28;20153;-74
2022/06/01 09:31:02;;;;;;;5.22;4.72;;;16.30;99.90;;;;;;5054677;28;20044;-74
2022/06/01 09:33:34;;;;;;;4.88;4.47;;;15.90;99.90;;;;;;5028628;28;20059;-74
2022/06/01 09:36:02;;;;;;;5.97;4.13;;;16.20;99.90;;;;;;5025833;28;20388;-72
2022/06/01 09:38:34;;;;;;;5.10;4.60;;;15.90;99.90;;;;;;5041192;28;20090;-73
2022/06/01 09:41:09;;;;;;;5.45;4.90;;;16.10;99.90;;;;;;5040441;28;20037;-74
2022/06/01 09:43:41;;;;;;;5.30;4.80;;;16.60;99.90;;;;;;5040449;28;20053;-74
2022/06/01 09:46:08;;;;;;;5.28;4.78;;;16.80;99.90;;;;;;5035659;28;20965;-74
2022/06/01 09:48:37;;;;;;;4.75;4.35;;;17.00;99.90;;;;;;5030058;28;20029;-74
2022/06/01 09:51:22;;;;;;;5.10;4.40;;;17.30;99.90;;;;;;5051725;28;20079;-74
2022/06/01 09:53:52;;;;;;;4.53;3.85;;;16.90;99.90;;;;;;5030645;28;20048;-75
2022/06/01 09:56:31;;;;;;;4.80;4.40;;;16.80;99.90;;;;;;5046413;28;20060;-74
2022/06/01 10:07:27;;;;;;;4.65;4.25;;;16.00;99.90;;;;;;5037958;28;20573;-74
2022/06/01 10:10:01;;;;;;;4.40;4.00;;;15.50;99.90;;;;;;5028225;28;20431;-73
2022/06/01 10:12:33;;;;;;;6.18;5.57;;;15.40;99.90;;;;;;5030269;28;20040;-72
2022/06/01 10:15:03;;;;;;;6.38;5.32;;;15.60;99.90;;;;;;5048643;28;20073;-75
2022/06/01 10:17:35;;;;;;;5.68;5.18;;;15.30;99.90;;;;;;5045670;28;20129;-74
2022/06/01 10:20:04;;;;;;;4.72;4.32;;;15.50;99.90;;;;;;5032028;28;20077;-73
2022/06/01 10:22:55;;;;;;;5.60;4.68;;;14.90;99.90;;;;;;5049684;28;20037;-74
2022/06/01 10:25:29;;;;;;;5.72;5.15;;;14.30;99.90;;;;;;5064430;28;20044;-74
2022/06/01 10:28:01;;;;;;;;;;;14.80;99.90;;;;;;5034716;28;20033;-73
2022/06/01 10:30:37;;;;;;;4.25;3.85;;;14.80;99.90;;;;;;5044480;28;20372;-72
2022/06/01 10:33:17;;;;;;;9.20;5.53;;;14.80;99.90;;;;;;5024731;28;20064;-73
2022/06/01 10:36:04;;;;;;;5.43;4.30;;;14.90;99.90;;;;;;5039304;28;20040;-74
2022/06/01 10:38:41;;;;;;;5.45;4.68;;;14.80;99.90;;;;;;5022119;28;20083;-74
2022/06/01 10:41:09;;;;;;;5.55;5.00;;;14.90;99.90;;;;;;5040699;28;20048;-73
2022/06/01 10:44:02;;;;;;;5.50;4.97;;;14.80;99.90;;;;;;5041514;28;20409;-73
2022/06/01 10:46:47;;;;;;;5.65;4.85;;;14.80;99.90;;;;;;5024813;28;20080;-72
2022/06/01 10:49:26;;;;;;;5.88;5.28;;;14.80;99.90;;;;;;5070250;28;20041;-73
2022/06/01 10:52:07;;;;;;;6.10;4.97;;;14.80;99.90;;;;;;5052437;28;20045;-73
2022/06/01 10:54:50;;;;;;;5.18;4.68;;;14.90;99.90;;;;;;5027301;28;20037;-73
2022/06/01 10:57:19;;;;;;;5.38;4.63;;;14.90;99.90;;;;;;5032454;28;20053;-72
2022/06/01 10:59:46;;;;;;;5.78;5.05;;;15.20;99.90;;;;;;5040327;28;20491;-74
2022/06/01 11:02:41;;;;;;;5.28;4.78;;;16.00;99.90;;;;;;5031768;28;20031;-72
2022/06/01 11:05:18;;;;;;;3.78;3.30;;;16.40;99.90;;;;;;5033113;28;20079;-73
2022/06/01 11:08:01;;;;;;;2.60;2.35;;;15.90;99.90;;;;;;5042518;28;20055;-73
2022/06/01 11:11:07;;;;;;;1.90;1.70;;;16.00;99.90;;;;;;5040499;28;20048;-75
2022/06/01 11:13:38;;;;;;;1.60;1.50;;;15.70;99.90;;;;;;5037672;28;20118;-75
2022/06/01 11:16:07;;;;;;;1.60;1.30;;;15.80;99.90;;;;;;5033166;28;20055;-73
2022/06/01 11:19:05;;;;;;;1.63;1.52;;;15.50;99.90;;;;;;5031023;28;20400;-72
2022/06/01 11:22:12;;;;;;;1.58;1.40;;;15.60;99.90;;;;;;5050577;28;20508;-73
2022/06/01 11:25:05;;;;;;;1.70;1.60;;;15.40;99.90;;;;;;5020729;28;20052;-71
2022/06/01 11:27:41;;;;;;;1.80;1.70;;;15.10;99.90;;;;;;5048380;28;20045;-72
2022/06/01 11:30:18;;;;;;;3.75;2.53;;;15.00;99.90;;;;;;5043151;28;20044;-72
2022/06/01 11:33:06;;;;;;;3.45;2.35;;;14.90;99.90;;;;;;5025838;28;20098;-73
2022/06/01 11:35:38;;;;;;;3.55;1.90;;;14.80;99.90;;;;;;5036232;28;20040;-73
2022/06/01 11:38:26;;;;;;;7.03;1.98;;;14.80;99.90;;;;;;5050397;28;20056;-73
2022/06/01 11:41:03;;;;;;;2.88;1.75;;;14.90;99.90;;;;;;5034260;28;20037;-74
2022/06/01 11:43:43;;;;;;;2.50;1.80;;;14.80;99.90;;;;;;5075659;28;20136;-72
2022/06/01 11:46:44;;;;;;;2.45;2.25;;;14.70;99.90;;;;;;5033711;28;21142;-72
2022/06/01 11:49:37;;;;;;;2.63;2.00;;;15.00;99.90;;;;;;5061986;28;20049;-74
2022/06/01 11:52:15;;;;;;;2.40;2.17;;;14.70;99.90;;;;;;5020698;28;20042;-74
2022/06/01 11:54:41;;;;;;;2.50;2.30;;;14.60;99.90;;;;;;5028170;28;20073;-75
2022/06/01 11:57:45;;;;;;;2.90;2.53;;;14.60;99.90;;;;;;5008505;28;20087;-74
2022/06/01 12:00:15;;;;;;;2.90;2.70;;;14.50;99.90;;;;;;5039768;28;20053;-74
2022/06/01 12:02:41;;;;;;;3.78;2.50;;;15.00;99.90;;;;;;5040020;28;20437;-75
2022/06/01 12:05:29;;;;;;;2.40;2.20;;;15.30;99.90;;;;;;5039711;28;20044;-74
2022/06/01 12:08:15;;;;;;;3.05;2.75;;;15.50;99.90;;;;;;5025972;28;20094;-75
2022/06/01 12:10:59;;;;;;;3.20;2.22;;;16.40;99.90;;;;;;5068850;28;20057;-73
2022/06/01 12:13:30;;;;;;;2.13;1.90;;;16.60;99.90;;;;;;5038028;28;20095;-76
2022/06/01 12:16:22;;;;;;;2.55;1.70;;;16.40;99.90;;;;;;5040790;28;20094;-75
2022/06/01 12:19:09;;;;;;;1.85;1.67;;;16.30;99.90;;;;;;5029541;28;20786;-73
2022/06/01 12:21:44;;;;;;;1.60;1.50;;;16.70;99.90;;;;;;5031438;28;20114;-76
2022/06/01 12:30:05;;;;;;;1.90;1.65;;;16.30;99.90;;;;;;5040852;28;20041;-75
2022/06/01 12:32:51;;;;;;;1.73;1.63;;;16.80;99.90;;;;;;5043719;28;20037;-75
2022/06/01 12:35:19;;;;;;;1.75;1.60;;;17.00;99.90;;;;;;5039239;28;20041;-74
2022/06/01 12:37:51;;;;;;;1.65;1.50;;;17.30;99.90;;;;;;5022887;28;21829;-72
2022/06/01 12:40:21;;;;;;;1.90;1.80;;;17.10;99.90;;;;;;5040466;28;20041;-74
2022/06/01 12:42:57;;;;;;;2.15;1.70;;;17.80;99.90;;;;;;5016115;28;20392;-74
2022/06/01 12:45:28;;;;;;;2.00;1.80;;;17.90;99.90;;;;;;5036049;28;20247;-74
2022/06/01 12:48:19;;;;;;;2.28;1.70;;;18.50;99.90;;;;;;5022628;28;20033;-73
2022/06/01 12:51:07;;;;;;;2.10;1.88;;;18.90;99.90;;;;;;5042816;28;20041;-74
2022/06/01 12:53:48;;;;;;;2.90;1.80;;;18.70;99.90;;;;;;5039402;28;21368;-74
2022/06/01 12:56:14;;;;;;;1.95;1.50;;;18.80;99.90;;;;;;5049518;28;20480;-73
2022/06/01 12:58:40;;;;;;;1.95;1.63;;;18.50;99.90;;;;;;5026983;28;20037;-74
2022/06/01 13:01:07;;;;;;;2.25;1.60;;;17.90;99.90;;;;;;5044839;28;22103;-73
2022/06/01 13:03:33;;;;;;;2.67;1.50;;;18.00;99.90;;;;;;5027545;28;20044;-74
2022/06/01 13:06:04;;;;;;;2.75;1.80;;;17.60;99.90;;;;;;5045012;28;20036;-74
2022/06/01 13:08:32;;;;;;;2.90;1.90;;;17.30;99.90;;;;;;5038385;28;20136;-74
2022/06/01 13:11:22;;;;;;;3.22;2.03;;;17.20;99.90;;;;;;5064543;28;20041;-74
2022/06/01 13:13:48;;;;;;;2.15;1.95;;;17.10;99.90;;;;;;5069243;28;20399;-74
2022/06/01 13:16:14;;;;;;;2.10;1.90;;;16.70;99.90;;;;;;5031324;28;20048;-74
2022/06/01 13:18:43;;;;;;;1.77;1.67;;;16.80;99.90;;;;;;5030190;28;20040;-75
2022/06/01 13:21:25;;;;;;;2.72;2.25;;;17.00;99.90;;;;;;5069567;28;20140;-75
2022/06/01 13:23:58;;;;;;;2.45;2.03;;;16.70;99.90;;;;;;5035731;28;20037;-74
2022/06/01 13:26:46;;;;;;;1.70;1.55;;;16.60;99.90;;;;;;5037732;28;20048;-74
2022/06/01 13:29:26;;;;;;;2.22;1.55;;;16.30;99.90;;;;;;5041406;28;20029;-73
2022/06/01 13:32:00;;;;;;;1.60;1.50;;;16.00;99.90;;;;;;5042746;28;20064;-74
2022/06/01 13:34:45;;;;;;;2.67;1.63;;;15.70;99.90;;;;;;5041825;28;20063;-75